createdAt,value
2019-02-10T00:00:54.399Z,75.81
2019-02-10T00:03:26.418Z,75.43
2019-02-10T00:05:58.550Z,74.44
2019-02-10T00:08:30.542Z,75.08
2019-02-10T00:11:02.565Z,75.77
2019-02-10T00:13:35.844Z,76.03
2019-02-10T00:16:10.437Z,76.37
2019-02-10T00:18:42.415Z,76.44
2019-02-10T00:21:14.456Z,76.58
2019-02-10T00:23:46.544Z,76.61
2019-02-10T00:26:18.577Z,76.68
2019-02-10T00:28:50.563Z,76.51
2019-02-10T00:31:22.551Z,76.30
2019-02-10T00:33:54.541Z,76.29
2019-02-10T00:36:32.940Z,76.71
2019-02-10T00:39:00.470Z,76.90
2019-02-10T00:41:32.492Z,76.41
2019-02-10T00:44:04.472Z,75.93
2019-02-10T00:46:36.462Z,76.64
2019-02-10T00:49:08.461Z,77.05
2019-02-10T00:51:40.479Z,77.31
2019-02-10T00:54:12.535Z,77.13
2019-02-10T00:56:44.652Z,77.30
2019-02-10T00:59:16.644Z,77.53
2019-02-10T01:01:48.697Z,77.61
2019-02-10T01:04:20.716Z,77.41
2019-02-10T01:06:52.697Z,77.54
2019-02-10T01:09:24.686Z,77.81
2019-02-10T01:11:56.712Z,77.82
2019-02-10T01:14:28.716Z,77.61
2019-02-10T01:17:00.731Z,77.53
2019-02-10T01:19:32.759Z,77.55
2019-02-10T01:22:04.723Z,77.45
2019-02-10T01:24:36.745Z,76.48
2019-02-10T01:27:08.744Z,76.36
2019-02-10T01:29:40.754Z,76.23
2019-02-10T01:32:12.720Z,76.99
2019-02-10T01:34:44.708Z,77.41
2019-02-10T01:37:16.679Z,76.17
2019-02-10T01:39:48.661Z,76.35
2019-02-10T01:42:20.652Z,76.32
2019-02-10T01:44:52.640Z,76.58
2019-02-10T01:47:24.614Z,76.93
2019-02-10T01:49:56.613Z,77.10
2019-02-10T01:52:28.589Z,76.87
2019-02-10T01:55:00.629Z,77.27
2019-02-10T01:57:32.574Z,77.39
2019-02-10T02:00:05.755Z,77.22
2019-02-10T02:02:37.736Z,77.43
2019-02-10T02:05:09.823Z,77.58
2019-02-10T02:07:41.797Z,77.33
2019-02-10T02:10:13.968Z,78.10
2019-02-10T02:12:45.926Z,78.24
2019-02-10T02:15:17.944Z,79.04
2019-02-10T02:17:49.908Z,78.89
2019-02-10T02:20:21.913Z,77.91
2019-02-10T02:22:53.882Z,78.19
2019-02-10T02:25:25.914Z,78.13
2019-02-10T02:27:57.862Z,77.98
2019-02-10T02:30:29.843Z,77.86
2019-02-10T02:33:01.921Z,76.83
2019-02-10T02:35:33.896Z,76.70
2019-02-10T02:38:05.880Z,76.69
2019-02-10T02:40:37.875Z,76.51
2019-02-10T02:43:09.868Z,76.56
2019-02-10T02:45:41.855Z,76.36
2019-02-10T02:48:13.829Z,76.15
2019-02-10T02:50:45.820Z,75.99
2019-02-10T02:53:17.802Z,75.69
2019-02-10T02:55:49.792Z,75.48
2019-02-10T02:58:21.822Z,74.48
2019-02-10T03:00:53.794Z,75.13
2019-02-10T03:03:25.795Z,73.90
2019-02-10T03:05:57.747Z,74.32
2019-02-10T03:08:29.759Z,73.38
2019-02-10T03:11:01.746Z,74.65
2019-02-10T03:13:33.734Z,75.86
2019-02-10T03:16:05.715Z,76.89
2019-02-10T03:18:37.723Z,76.78
2019-02-10T03:21:09.701Z,77.10
2019-02-10T03:23:41.687Z,75.96
2019-02-10T03:26:13.661Z,76.12
2019-02-10T03:28:45.676Z,75.02
2019-02-10T03:31:17.664Z,75.04
2019-02-10T03:33:49.668Z,72.97
2019-02-10T03:36:21.622Z,73.28
2019-02-10T03:38:53.629Z,72.99
2019-02-10T03:41:25.780Z,73.83
2019-02-10T03:43:57.761Z,74.15
2019-02-10T03:46:29.721Z,74.39
2019-02-10T03:49:01.721Z,74.94
2019-02-10T03:51:33.679Z,75.28
2019-02-10T03:54:05.662Z,74.74
2019-02-10T03:56:37.659Z,74.05
2019-02-10T03:59:09.641Z,72.50
2019-02-10T04:01:41.697Z,74.12
2019-02-10T04:04:13.703Z,73.27
2019-02-10T04:06:45.660Z,73.63
2019-02-10T04:09:17.661Z,73.37
2019-02-10T04:11:49.618Z,73.14
2019-02-10T04:14:21.613Z,72.80
2019-02-10T04:16:53.592Z,73.16
2019-02-10T04:19:25.585Z,73.48
2019-02-10T04:21:57.654Z,73.98
2019-02-10T04:24:29.654Z,73.10
2019-02-10T04:27:01.605Z,73.36
2019-02-10T04:29:33.572Z,74.05
2019-02-10T04:32:05.536Z,74.67
2019-02-10T04:34:37.518Z,75.06
2019-02-10T04:37:09.497Z,75.48
2019-02-10T04:39:41.512Z,75.46
2019-02-10T04:42:13.476Z,75.13
2019-02-10T04:44:45.454Z,75.15
2019-02-10T04:47:17.443Z,74.44
2019-02-10T04:49:49.418Z,75.01
2019-02-10T04:52:21.402Z,75.45
2019-02-10T04:54:53.378Z,75.84
2019-02-10T04:57:25.365Z,76.18
2019-02-10T05:02:56.863Z,75.25
2019-02-10T05:05:28.834Z,74.69
2019-02-10T05:11:00.006Z,73.85
2019-02-10T05:13:31.984Z,73.11
2019-02-10T05:16:04.011Z,72.02
2019-02-10T05:18:36.013Z,72.35
2019-02-10T05:21:07.986Z,72.53
2019-02-10T05:23:39.983Z,72.25
2019-02-10T05:26:11.958Z,72.44
2019-02-10T05:28:43.926Z,72.60
2019-02-10T05:31:15.908Z,72.31
2019-02-10T05:33:47.923Z,72.28
2019-02-10T05:36:19.904Z,73.24
2019-02-10T05:38:51.898Z,73.34
2019-02-10T05:41:23.886Z,73.70
2019-02-10T05:43:55.860Z,74.27
2019-02-10T05:46:27.830Z,72.76
2019-02-10T05:49:19.292Z,72.13
2019-02-10T05:51:51.262Z,72.64
2019-02-10T05:54:23.253Z,72.57
2019-02-10T05:56:55.258Z,72.17
2019-02-10T05:59:27.272Z,71.08
2019-02-10T06:05:28.923Z,70.58
2019-02-10T06:08:00.952Z,70.07
2019-02-10T06:10:32.977Z,69.49
2019-02-10T06:13:04.939Z,68.71
2019-02-10T06:15:36.933Z,67.97
2019-02-10T06:18:08.921Z,67.23
2019-02-10T06:20:40.918Z,66.54
2019-02-10T06:23:12.880Z,66.60
2019-02-10T06:25:44.873Z,66.64
2019-02-10T06:28:16.831Z,65.41
2019-02-10T06:30:48.829Z,65.59
2019-02-10T06:33:20.817Z,64.50
2019-02-10T06:35:52.866Z,64.92
2019-02-10T06:38:24.840Z,64.62
2019-02-10T06:40:56.840Z,64.25
2019-02-10T06:43:28.809Z,64.62
2019-02-10T06:46:00.850Z,64.12
2019-02-10T06:48:32.824Z,63.54
2019-02-10T06:51:04.842Z,63.82
2019-02-10T06:53:36.815Z,63.32
2019-02-10T06:56:08.835Z,62.86
2019-02-10T06:58:40.845Z,63.19
2019-02-10T07:01:18.463Z,62.42
2019-02-10T07:04:01.796Z,62.79
2019-02-10T07:06:33.822Z,61.83
2019-02-10T07:09:05.798Z,61.99
2019-02-10T07:11:37.798Z,61.33
2019-02-10T07:14:33.333Z,61.52
2019-02-10T07:17:47.444Z,61.41
2019-02-10T07:20:39.773Z,60.95
2019-02-10T07:24:05.646Z,60.17
2019-02-10T07:26:52.706Z,60.43
2019-02-10T07:29:42.100Z,60.94
2019-02-10T07:32:22.298Z,60.40
2019-02-10T07:35:10.007Z,60.85
2019-02-10T07:38:12.993Z,61.32
2019-02-10T07:41:32.872Z,61.00
2019-02-10T07:44:53.163Z,61.00
2019-02-10T07:48:01.248Z,61.45
2019-02-10T07:51:12.772Z,60.77
2019-02-10T07:54:16.128Z,61.67
2019-02-10T07:57:39.075Z,60.44
2019-02-10T08:00:43.683Z,60.03
2019-02-10T08:03:59.545Z,60.98
2019-02-10T08:06:55.894Z,60.34
2019-02-10T08:10:03.271Z,60.67
2019-02-10T08:13:18.856Z,60.51
2019-02-10T08:16:36.090Z,59.13
2019-02-10T08:19:58.765Z,58.39
2019-02-10T08:23:04.294Z,59.21
2019-02-10T08:26:17.023Z,58.29
2019-02-10T08:29:25.763Z,58.01
2019-02-10T08:32:34.748Z,57.40
2019-02-10T08:35:45.577Z,56.92
2019-02-10T08:39:00.446Z,57.21
2019-02-10T08:42:17.758Z,56.60
2019-02-10T08:45:18.487Z,56.58
2019-02-10T08:48:50.460Z,55.92
2019-02-10T08:52:02.860Z,55.30
2019-02-10T08:54:34.942Z,55.17
2019-02-10T08:57:06.998Z,54.85
2019-02-10T08:59:39.048Z,53.97
2019-02-10T09:02:11.034Z,54.07
2019-02-10T09:04:43.040Z,53.66
2019-02-10T09:07:16.307Z,53.92
2019-02-10T09:09:48.340Z,54.27
2019-02-10T09:12:20.381Z,54.25
2019-02-10T09:14:52.416Z,54.10
2019-02-10T09:17:24.453Z,54.70
2019-02-10T09:19:56.475Z,53.78
2019-02-10T09:22:28.502Z,52.85
2019-02-10T09:25:00.579Z,53.31
2019-02-10T09:27:32.625Z,53.35
2019-02-10T09:30:05.556Z,53.27
2019-02-10T09:32:37.624Z,53.06
2019-02-10T09:35:09.741Z,52.36
2019-02-10T09:37:41.805Z,52.35
2019-02-10T09:40:13.805Z,51.59
2019-02-10T09:42:46.005Z,52.15
2019-02-10T09:45:18.030Z,51.00
2019-02-10T09:47:50.345Z,51.06
2019-02-10T09:50:22.375Z,50.67
2019-02-10T09:52:54.385Z,51.03
2019-02-10T09:55:26.466Z,50.64
2019-02-10T09:57:59.591Z,49.82
2019-02-10T10:00:34.859Z,49.73
2019-02-10T10:03:06.976Z,50.03
2019-02-10T10:05:39.018Z,49.58
2019-02-10T10:08:11.060Z,49.65
2019-02-10T10:10:43.069Z,49.69
2019-02-10T10:13:15.118Z,49.14
2019-02-10T10:15:47.098Z,48.61
2019-02-10T10:18:19.173Z,49.11
2019-02-10T10:20:51.554Z,48.99
2019-02-10T10:23:23.725Z,48.75
2019-02-10T10:25:55.775Z,48.35
2019-02-10T10:28:28.910Z,48.53
2019-02-10T10:31:01.054Z,48.41
2019-02-10T10:33:33.105Z,48.25
2019-02-10T10:36:05.116Z,48.27
2019-02-10T10:38:37.142Z,48.24
2019-02-10T10:41:09.249Z,48.20
2019-02-10T10:43:41.358Z,48.06
2019-02-10T10:46:13.343Z,48.08
2019-02-10T10:48:45.423Z,47.53
2019-02-10T10:51:17.517Z,47.30
2019-02-10T10:53:49.564Z,47.12
2019-02-10T10:56:21.574Z,46.34
2019-02-10T10:58:53.658Z,46.84
2019-02-10T11:01:25.717Z,47.24
2019-02-10T11:03:57.817Z,46.57
2019-02-10T11:06:29.898Z,46.74
2019-02-10T11:09:03.971Z,46.58
2019-02-10T11:11:36.038Z,46.45
2019-02-10T11:14:08.162Z,46.00
2019-02-10T11:16:40.299Z,46.18
2019-02-10T11:19:12.445Z,46.12
2019-02-10T11:21:44.623Z,46.06
2019-02-10T11:24:16.795Z,46.09
2019-02-10T11:26:48.900Z,45.94
2019-02-10T11:29:20.971Z,46.18
2019-02-10T11:31:53.126Z,46.16
2019-02-10T11:34:25.153Z,45.88
2019-02-10T11:36:57.266Z,45.56
2019-02-10T11:39:29.302Z,45.70
2019-02-10T11:42:01.461Z,46.24
2019-02-10T11:44:33.476Z,46.07
2019-02-10T11:47:05.557Z,45.92
2019-02-10T11:49:37.614Z,45.58
2019-02-10T11:52:10.599Z,45.43
2019-02-10T11:54:42.678Z,45.00
2019-02-10T11:57:14.793Z,44.50
2019-02-10T11:59:47.047Z,44.78
2019-02-10T12:02:19.104Z,45.01
2019-02-10T12:04:51.145Z,44.78
2019-02-10T12:07:23.716Z,44.61
2019-02-10T12:09:55.768Z,44.32
2019-02-10T12:12:27.971Z,43.48
2019-02-10T12:15:00.141Z,43.43
2019-02-10T12:17:32.221Z,43.01
2019-02-10T12:20:04.452Z,42.51
2019-02-10T12:22:36.663Z,42.44
2019-02-10T12:25:08.719Z,42.70
2019-02-10T12:27:40.778Z,42.81
2019-02-10T12:30:12.787Z,42.36
2019-02-10T12:32:44.857Z,43.08
2019-02-10T12:35:16.850Z,43.27
2019-02-10T12:37:49.898Z,42.94
2019-02-10T12:40:21.897Z,43.35
2019-02-10T12:42:53.994Z,43.68
2019-02-10T12:45:26.026Z,43.25
2019-02-10T12:47:58.112Z,43.12
2019-02-10T12:50:30.087Z,43.16
2019-02-10T12:53:02.228Z,43.49
2019-02-10T12:55:34.236Z,42.98
2019-02-10T12:58:06.736Z,42.86
2019-02-10T13:00:38.803Z,43.16
2019-02-10T13:03:10.834Z,42.95
2019-02-10T13:05:43.091Z,42.78
2019-02-10T13:08:15.111Z,42.96
2019-02-10T13:10:47.156Z,42.86
2019-02-10T13:13:19.668Z,43.41
2019-02-10T13:15:51.847Z,43.42
2019-02-10T13:18:23.956Z,43.63
2019-02-10T13:20:56.438Z,43.70
2019-02-10T13:23:28.441Z,44.35
2019-02-10T13:26:00.505Z,45.17
2019-02-10T13:28:32.580Z,48.84
2019-02-10T13:31:04.673Z,49.81
2019-02-10T13:33:36.654Z,50.90
2019-02-10T13:36:08.742Z,53.02
2019-02-10T13:38:40.768Z,53.88
2019-02-10T13:41:12.840Z,54.52
2019-02-10T13:43:44.867Z,55.59
2019-02-10T13:46:16.921Z,57.15
2019-02-10T13:48:48.959Z,59.67
2019-02-10T13:51:21.718Z,60.44
2019-02-10T13:53:53.817Z,60.81
2019-02-10T13:56:25.908Z,61.11
2019-02-10T13:58:57.948Z,61.64
2019-02-10T14:01:30.028Z,62.52
2019-02-10T14:04:02.190Z,62.66
2019-02-10T14:06:34.210Z,62.42
2019-02-10T14:09:06.418Z,62.95
2019-02-10T14:11:38.475Z,63.21
2019-02-10T14:14:10.519Z,64.04
2019-02-10T14:16:42.670Z,64.24
2019-02-10T14:19:14.733Z,63.82
2019-02-10T14:21:47.563Z,63.01
2019-02-10T14:24:19.653Z,63.28
2019-02-10T14:26:52.697Z,63.10
2019-02-10T14:29:24.841Z,63.73
2019-02-10T14:31:56.955Z,63.53
2019-02-10T14:34:29.019Z,64.17
2019-02-10T14:37:01.161Z,63.83
2019-02-10T14:39:33.251Z,63.63
2019-02-10T14:42:05.291Z,63.77
2019-02-10T14:44:38.160Z,64.69
2019-02-10T14:47:10.188Z,64.59
2019-02-10T14:49:42.275Z,64.45
2019-02-10T14:52:14.295Z,64.76
2019-02-10T14:54:46.586Z,65.25
2019-02-10T14:57:18.792Z,65.29
2019-02-10T14:59:50.885Z,65.83
2019-02-10T15:02:23.245Z,65.61
2019-02-10T15:04:55.325Z,66.01
2019-02-10T15:07:27.433Z,67.04
2019-02-10T15:09:59.641Z,67.44
2019-02-10T15:12:31.680Z,67.77
2019-02-10T15:15:04.545Z,68.10
2019-02-10T15:17:36.713Z,68.20
2019-02-10T15:20:08.901Z,68.08
2019-02-10T15:22:40.987Z,68.08
2019-02-10T15:25:13.188Z,69.06
2019-02-10T15:27:47.558Z,68.14
2019-02-10T15:30:19.832Z,68.48
2019-02-10T15:32:51.903Z,68.47
2019-02-10T15:35:24.027Z,67.87
2019-02-10T15:37:56.177Z,67.46
2019-02-10T15:40:28.462Z,67.51
2019-02-10T15:43:00.598Z,67.51
2019-02-10T15:45:32.774Z,68.09
2019-02-10T15:48:04.929Z,68.19
2019-02-10T15:50:39.322Z,68.97
2019-02-10T15:53:11.355Z,69.57
2019-02-10T15:55:43.995Z,71.09
2019-02-10T15:58:16.137Z,71.59
2019-02-10T16:00:48.209Z,73.51
2019-02-10T16:03:20.221Z,74.35
2019-02-10T16:05:52.329Z,74.30
2019-02-10T16:08:24.379Z,73.82
2019-02-10T16:10:58.159Z,75.32
2019-02-10T16:13:30.510Z,75.74
2019-02-10T16:16:02.678Z,75.57
2019-02-10T16:18:34.700Z,76.04
2019-02-10T16:21:06.747Z,75.78
2019-02-10T16:23:38.941Z,76.17
2019-02-10T16:26:11.191Z,75.74
2019-02-10T16:28:43.346Z,75.83
2019-02-10T16:31:15.520Z,75.42
2019-02-10T16:33:47.654Z,75.79
2019-02-10T16:36:19.851Z,75.45
2019-02-10T16:38:52.038Z,75.50
2019-02-10T16:41:24.134Z,75.52
2019-02-10T16:43:56.220Z,76.42
2019-02-10T16:46:28.280Z,75.99
2019-02-10T16:49:00.384Z,76.09
2019-02-10T16:51:32.512Z,76.15
2019-02-10T16:54:04.722Z,76.40
2019-02-10T16:56:38.074Z,75.75
2019-02-10T16:59:10.249Z,75.71
2019-02-10T17:01:42.444Z,75.86
2019-02-10T17:04:15.074Z,76.39
2019-02-10T17:06:47.175Z,76.04
2019-02-10T17:09:19.318Z,76.38
2019-02-10T17:11:51.396Z,76.10
2019-02-10T17:14:23.646Z,75.49
2019-02-10T17:16:55.770Z,75.63
2019-02-10T17:19:27.965Z,75.91
2019-02-10T17:22:00.422Z,75.98
2019-02-10T17:24:32.647Z,76.27
2019-02-10T17:27:04.740Z,76.31
2019-02-10T17:29:37.082Z,77.10
2019-02-10T17:32:09.141Z,78.26
2019-02-10T17:34:41.258Z,77.46
2019-02-10T17:37:13.274Z,77.84
2019-02-10T17:39:45.438Z,77.21
2019-02-10T17:42:17.527Z,77.72
2019-02-10T17:44:49.645Z,78.07
2019-02-10T17:47:21.742Z,79.02
2019-02-10T17:49:53.838Z,79.58
2019-02-10T17:52:31.868Z,80.47
2019-02-10T17:54:59.956Z,80.73
2019-02-10T17:57:32.054Z,81.48
2019-02-10T18:00:04.760Z,81.92
2019-02-10T18:02:36.860Z,83.34
2019-02-10T18:05:09.046Z,83.83
2019-02-10T18:07:41.189Z,83.88
2019-02-10T18:10:13.353Z,82.76
2019-02-10T18:12:45.409Z,83.43
2019-02-10T18:15:45.962Z,83.68
2019-02-10T18:18:43.403Z,83.93
2019-02-10T18:21:38.068Z,84.05
2019-02-10T18:24:32.445Z,83.52
2019-02-10T18:27:22.815Z,83.80
2019-02-10T18:30:13.424Z,83.53
2019-02-10T18:33:14.245Z,83.78
2019-02-10T18:36:04.603Z,83.01
2019-02-10T18:38:59.235Z,82.59
2019-02-10T18:42:06.064Z,82.29
2019-02-10T18:44:48.030Z,82.33
2019-02-10T18:47:35.817Z,82.79
2019-02-10T18:50:28.368Z,83.00
2019-02-10T18:53:06.023Z,82.32
2019-02-10T18:56:03.205Z,82.23
2019-02-10T18:58:55.155Z,81.19
2019-02-10T19:01:52.389Z,81.40
2019-02-10T19:04:46.754Z,79.85
2019-02-10T19:07:28.945Z,79.38
2019-02-10T19:10:17.348Z,79.71
2019-02-10T19:13:09.257Z,78.98
2019-02-10T19:15:53.573Z,78.34
2019-02-10T19:18:44.156Z,79.29
2019-02-10T19:21:58.207Z,79.49
2019-02-10T19:24:47.177Z,78.41
2019-02-10T19:27:38.837Z,78.71
2019-02-10T19:30:24.541Z,78.92
2019-02-10T19:33:02.938Z,78.93
2019-02-10T19:35:45.597Z,78.40
2019-02-10T19:38:31.830Z,78.37
2019-02-10T19:41:29.446Z,78.80
2019-02-10T19:44:27.224Z,78.07
2019-02-10T19:47:12.708Z,78.19
2019-02-10T19:50:04.883Z,78.10
2019-02-10T19:53:02.495Z,78.05
2019-02-10T19:55:46.293Z,78.08
2019-02-10T19:58:47.160Z,77.82
2019-02-10T20:01:41.707Z,77.55
2019-02-10T20:04:32.211Z,77.72
2019-02-10T20:07:21.416Z,77.64
2019-02-10T20:10:10.636Z,77.30
2019-02-10T20:12:47.852Z,77.52
2019-02-10T20:15:51.452Z,77.42
2019-02-10T20:18:41.631Z,77.98
2019-02-10T20:21:33.318Z,77.63
2019-02-10T20:24:27.598Z,78.20
2019-02-10T20:27:22.371Z,78.28
2019-02-10T20:30:17.241Z,78.38
2019-02-10T20:33:08.237Z,78.36
2019-02-10T20:35:57.612Z,78.16
2019-02-10T20:38:40.775Z,78.85
2019-02-10T20:41:31.003Z,78.50
2019-02-10T20:44:22.629Z,77.69
2019-02-10T20:47:04.251Z,76.27
2019-02-10T20:49:54.567Z,75.57
2019-02-10T20:52:46.417Z,75.32
2019-02-10T20:55:28.397Z,74.65
2019-02-10T20:58:29.347Z,74.44
2019-02-10T21:01:29.830Z,73.93
2019-02-10T21:04:24.697Z,74.97
2019-02-10T21:07:16.376Z,75.64
2019-02-10T21:10:23.360Z,74.76
2019-02-10T21:13:26.750Z,75.11
2019-02-10T21:16:04.021Z,76.59
2019-02-10T21:18:47.606Z,77.11
2019-02-10T21:21:44.979Z,76.88
2019-02-10T21:24:33.842Z,77.90
2019-02-10T21:27:19.105Z,78.27
2019-02-10T21:30:16.790Z,78.93
2019-02-10T21:32:57.345Z,80.59
2019-02-10T21:35:36.043Z,80.45
2019-02-10T21:38:26.720Z,81.83
2019-02-10T21:41:24.552Z,81.13
2019-02-10T21:44:20.780Z,81.29
2019-02-10T21:46:57.922Z,81.92
2019-02-10T21:49:30.004Z,81.69
2019-02-10T21:52:02.052Z,81.78
2019-02-10T21:54:34.130Z,81.68
2019-02-10T21:57:06.187Z,81.50
2019-02-10T21:59:38.346Z,81.77
2019-02-10T22:02:10.343Z,82.09
2019-02-10T22:04:42.408Z,81.76
2019-02-10T22:07:14.434Z,81.56
2019-02-10T22:09:46.438Z,81.69
2019-02-10T22:12:18.516Z,80.84
2019-02-10T22:14:50.550Z,81.38
2019-02-10T22:17:22.593Z,81.73
2019-02-10T22:19:54.575Z,81.25
2019-02-10T22:22:26.591Z,81.22
2019-02-10T22:24:58.647Z,81.08
2019-02-10T22:27:30.676Z,81.07
2019-02-10T22:30:03.215Z,81.63
2019-02-10T22:32:35.261Z,81.34
2019-02-10T22:35:07.255Z,80.10
2019-02-10T22:37:39.244Z,80.45
2019-02-10T22:40:11.255Z,81.58
2019-02-10T22:42:45.837Z,80.96
2019-02-10T22:45:17.164Z,80.71
2019-02-10T22:47:49.163Z,80.49
2019-02-10T22:50:21.162Z,80.44
2019-02-10T22:52:53.180Z,80.56
2019-02-10T22:55:25.146Z,80.42
2019-02-10T22:57:57.270Z,80.16
2019-02-10T23:00:53.554Z,80.11
2019-02-10T23:03:25.541Z,80.33
2019-02-10T23:05:57.507Z,79.73
2019-02-10T23:08:29.494Z,80.16
2019-02-10T23:11:01.442Z,79.60
2019-02-10T23:13:33.438Z,80.02
2019-02-10T23:16:05.436Z,79.86
2019-02-10T23:18:37.479Z,80.35
2019-02-10T23:21:09.469Z,80.58
2019-02-10T23:23:41.558Z,81.12
2019-02-10T23:26:13.588Z,80.84
2019-02-10T23:28:45.586Z,81.06
2019-02-10T23:31:17.576Z,81.31
2019-02-10T23:33:49.584Z,81.28
2019-02-10T23:36:21.612Z,81.44
2019-02-10T23:38:53.647Z,80.71
2019-02-10T23:41:25.637Z,80.74
2019-02-10T23:43:57.683Z,80.39
2019-02-10T23:46:29.646Z,81.47
2019-02-10T23:49:01.670Z,81.56
2019-02-10T23:51:33.667Z,81.37
2019-02-10T23:54:05.667Z,81.97
2019-02-10T23:56:37.675Z,82.23
2019-02-10T23:59:09.708Z,82.32
